Virtual Norwegian is not affiliated with Norwegian Air Shuttle in any way.
If you are looking for the real "Norwegian", or you wish to book Norwegian flights, please visit Norwegian.com


We use cookies to ensure you get the best experience on our website.   ACCEPT

LDDU - DBV - Dubrovnik (Dubrovnik)

General Info Alternate Airport
ICAO: LDDU Elevation: 527 ft ICAO: LDSP
IATA: DBV Country: Croatia IATA: SPU
City: Dubrovnik Charts: Log in to view charts City: Split
Name: Dubrovnik Hub: No Name Split
General Info
ICAO: LDDU
IATA: DBV
City: Dubrovnik
Name: Dubrovnik
Elevation: 527 ft
Country: Croatia
Charts: Log in to view charts
Hub: No
 
Alternate Airport
ICAO: LDSP
IATA: SPU
City: Split
Name: Split

Weather
231500Z 36008KT 280V090 CAVOK 15/03 Q1005 TEMPO 02018G30KT
Weather
231500Z 36008KT 280V090 CAVOK 15/03 Q1005 TEMPO 02018G30KT

Runway Info
12
Length ILS/LOC Course
3300 m 110.10 115
30
Length ILS/LOC Heading
3300 m N/A 298

NOTAMs
NOTAMs currently unavailable.
NOTAMs
NOTAMs currently unavailable

Route map
Airport
Airport (hub)